Logo AVAMET
Benvolgut visitant, si us plau, ingressa Recuperar contrasenya
AVAMET paisatges

les Useres

Dades diàries. Acumulats / Últims 30 dies disponibles

Data Temperatura (°C) Humitat rel. (%) Pressió rel. (hPa) Vent (km/h) Precipitació
Mínima Mitjana Màxima Amplitud
tèrmica
Mínima Mitjana Màxima Mínima Mitjana Màxima Predom. Mitjana Ràfega
màxima
Total
(mm)
Índex-n
Mínima Mitjana Màxima Mínima Mitjana Màxima n
0 a 1
P0 max
mm 5'
Dades mensuals acumulades fins l'últim dia disponible
07/2020 17,7 20,1 21,3 24,5 25,9 29,4 31,8 14,1 35 66 89 1.009 1.014 1.021   6,5 48,3 0,0
Dades anuals acumulades fins l'últim dia disponible
2020 1,8 11,6 21,3 15,4 6,2 20,0 31,8 30,0 21 67 96 992 1.017 1.033   6,1 104,6 749,2
Últims 30 dies disponibles
10-07-2020 19,9     25,2     30,2 10,3 43 62 82 1.012 1.013 1.015 E 6,0 35,4 0,0
09-07-2020 20,3     24,4     30,7 10,4 53 69 85 1.013 1.015 1.016 SE 6,4 37,0 0,0
08-07-2020 20,1     24,0     29,7 9,6 35 72 89 1.013 1.015 1.017 SE 7,2 48,3 0,0
07-07-2020 21,1     25,0     29,1 8,0 55 63 79 1.013 1.013 1.015 SE 6,4 35,4 0,0
06-07-2020 21,3     26,8     31,8 10,5 41 54 71 1.013 1.014 1.016 SE 6,1 37,0 0,0
05-07-2020 19,9     24,8     29,9 10,0 40 60 86 1.016 1.018 1.020 SE 6,6 37,0 0,0
04-07-2020 17,7     22,2     25,9 8,2 63 76 87 1.018 1.019 1.021 SE 6,3 30,6 0,0
03-07-2020 20,2     22,7     26,8 6,6 52 65 87 1.014 1.016 1.019 SE 8,7 38,6 0,0
02-07-2020 20,8     24,2     28,1 7,3 57 73 88 1.010 1.012 1.014 ESE 6,3 33,8 0,0
01-07-2020 19,2     25,2     31,3 12,1 51 70 86 1.009 1.010 1.011 SE 5,0 33,8 0,0
30-06-2020 19,6     24,2     29,3 9,7 54 72 92 1.010 1.012 1.015 SSO 6,5 33,8 0,0
29-06-2020 19,9     23,9     29,0 9,1 56 72 85 1.013 1.014 1.015 ESE 4,8 29,0 0,0
28-06-2020 19,1     24,4     28,7 9,6 55 66 81 1.014 1.015 1.016 SE 6,3 37,0 0,0
27-06-2020 19,3     24,6     29,6 10,3 41 58 69 1.012 1.013 1.015 SE 5,5 33,8 0,0
26-06-2020 18,3     24,2     29,1 10,8 36 51 63 1.011 1.013 1.015 SE 7,6 48,3 0,0
25-06-2020 20,0     24,5     29,8 9,8 41 55 69 1.013 1.014 1.017 SE 6,3 40,2 0,0
24-06-2020 18,2     23,1     28,6 10,4 47 64 82 1.014 1.016 1.018 SE 6,8 41,8 0,0
23-06-2020 18,0     22,5     27,1 9,1 53 68 81 1.015 1.017 1.019 SE 8,4 43,5 0,0
22-06-2020 20,1     24,2     27,6 7,5 45 58 76 1.017 1.019 1.020 SE 8,9 41,8 0,0
21-06-2020 17,6     23,0     28,6 11,0 53 75 94 1.018 1.019 1.020 SE 5,0 32,2 0,0
20-06-2020 16,5     20,8     25,4 8,9 67 81 92 1.018 1.019 1.020 SE 4,7 22,5 0,4
19-06-2020 16,3     18,8     22,3 6,0 71 83 89 1.016 1.017 1.020 SE 4,3 30,6 0,0
18-06-2020 15,8     18,0     21,7 5,9 68 77 86 1.012 1.014 1.016 ESE 5,0 32,2 0,0
17-06-2020 15,8     18,1     21,7 5,9 58 72 86 1.014 1.014 1.016 SE 5,6 32,2 0,0
16-06-2020 16,3     18,6     21,6 5,3 64 76 89 1.014 1.015 1.017 SE 5,1 30,6 1,8
15-06-2020 18,2     21,9     26,3 8,1 48 59 75 1.016 1.017 1.018 SE 6,4 32,2 0,0
14-06-2020 16,5     21,1     25,3 8,8 46 58 70 1.015 1.016 1.017 NW 6,3 33,8 0,0
13-06-2020 15,6     20,6     25,4 9,8 35 47 61 1.006 1.010 1.015 SE 7,2 41,8 0,0
12-06-2020 17,9     21,6     26,3 8,4 28 43 86 1.000 1.002 1.006 W 12,2 49,9 0,0
11-06-2020 16,3     20,2     28,4 12,1 26 67 84 1.000 1.005 1.012 SE 7,9 59,5 0,0
Últims 13 mesos disponibles
06/2020 12,9 16,8 20,1 21,0 19,7 25,7 29,8 16,9 43 65 83 1.002 1.013 1.019 SE 6,5 59,5 47,8
05/2020 11,3 15,2 18,8 19,6 16,1 24,4 30,2 18,9 48 63 82 1.003 1.015 1.026 SE 5,9 46,7 59,8
04/2020 6,3 10,4 15,3 13,7 12,4 18,2 25,7 19,4 47 75 88 1.003 1.014 1.025 SE 5,4 57,9 286,0
03/2020 3,8 8,8 14,5 12,2 8,6 16,1 24,8 21,0 45 67 92 1.002 1.015 1.026 NNW 8,2 104,6 203,4
02/2020 4,3 9,2 15,7 13,6 12,6 18,9 24,4 20,1 35 63 89 1.010 1.023 1.031 SE 5,0 62,8 0,8
01/2020 1,8 6,4 12,1 9,8 6,2 14,1 20,0 18,2 52 71 93 1.017 1.024 1.031 SE 5,5 74,0 151,4
12/2019 4,2 9,4 14,9 12,5 10,2 16,1 22,9 18,7 40 65 86 998 1.017 1.031 SE 7,1 96,6 96,2
11/2019 5,4 10,0 17,0 13,4 12,3 17,3 25,4 20,0 43 53 73 994 1.008 1.016 SE 9,5 78,9 3,2
10/2019 9,7 14,8 18,2 18,7 14,3 23,3 30,4 20,7 43 65 82 1.005 1.015 1.020 SE 6,0 56,3 24,8
09/2019 12,8 17,8 20,5 21,7 19,6 26,3 30,6 17,8 51 67 81 1.008 1.016 1.025 SE 7,5 66,0 33,8
08/2019 17,3 20,3 25,9 24,7 23,8 29,9 36,4 19,1 48 65 80 1.009 1.014 1.019 SE 6,4 66,0 47,0
07/2019 19,3 20,9 23,3 25,6 25,5 31,0 35,1 15,8 37 55 71 1.004 1.012 1.019 SE 6,9 53,1 12,8
06/2019 10,3 16,8 23,7 21,7 18,7 26,9 38,4 28,1 26 54 72 1.006 1.013 1.020 SE 7,4 61,2 0,2
Tots els anys disponibles
2019 1,8 13,0 25,9 17,0 9,1 21,7 38,4 36,6 22 59 88 990 1.015 1.032 SE 7,5 122,3 365,0
Temperatura (°C)
Humitat relativa (%)
Velocitat del vent i ràfega màxima (km/h)
Direcció del vent (°)
Pressió (hPa)
Precipitació (mm)
Nota sobre les dades: s'avisa a l'usuari de la provisionalitat i no oficialitat d'aquestes dades
Logo AVAMET blanc
Web allotjada a Sollutia
Llicència de Creative CommonsLa web d'AVAMET i els seus continguts estan subjectes a una llicència de
Reconeixement - No Comercial - Compartir igual
Últimes estacions: Vilamarxant - La Pedrera (Soci), Càlig (Ajuntament Soci), Quesa - Hotel La Rocha (Soci), Agres - Les Eres (Soci), la Vilavella - Ptda Forns (Soci), Miramar - Platja (Inforatge), San Fulgencio - Centre & San Fulgencio - Urb. La Marina (MeteOrihuela), Ontinyent - els Gínjols (Soci), Orba (Aj. Soci) - - -